Time;durP1;ratioP1;P1;durP2;ratioP2;P2;SDS_P1;SDS_P2;PMS_P1;PMS_P2;Temp;Humidity;BMP_temperature;BMP_pressure;BME280_temperature;BME280_humidity;BME280_pressure;Samples;Min_cycle;Max_cycle;Signal;HPM_P1;HPM_P2
2021/03/19 00:00:31;;;;;;;4.85;2.42;;;8.50;45.60;;;;;;6268411;28;20052;-83
2021/03/19 00:03:33;;;;;;;5.68;2.03;;;8.50;45.80;;;;;;6267423;28;20478;-81
2021/03/19 00:06:34;;;;;;;4.20;2.28;;;8.50;45.90;;;;;;6268581;28;20025;-82
2021/03/19 00:09:35;;;;;;;2.58;1.80;;;8.40;46.00;;;;;;6260937;28;20108;-83
2021/03/19 00:12:36;;;;;;;9.52;2.47;;;8.40;46.30;;;;;;6290761;28;20036;-83
2021/03/19 00:15:38;;;;;;;3.17;1.92;;;8.10;46.70;;;;;;6292381;28;20021;-83
2021/03/19 00:18:39;;;;;;;3.67;1.90;;;8.20;47.10;;;;;;6292544;28;20098;-82
2021/03/19 00:21:40;;;;;;;4.38;1.92;;;8.20;47.30;;;;;;6292297;28;20115;-82
2021/03/19 00:24:41;;;;;;;5.00;2.30;;;8.10;47.20;;;;;;6253781;28;20586;-83
2021/03/19 00:27:42;;;;;;;6.45;2.47;;;8.10;47.70;;;;;;6291502;28;20028;-83
2021/03/19 00:30:46;;;;;;;4.10;2.60;;;8.10;47.40;;;;;;6293598;28;20151;-82
2021/03/19 00:33:48;;;;;;;6.82;2.42;;;8.10;47.60;;;;;;6276482;28;20108;-81
2021/03/19 00:36:49;;;;;;;5.00;2.22;;;8.10;47.70;;;;;;6272572;28;20033;-82
2021/03/19 00:39:50;;;;;;;6.70;2.85;;;8.10;47.80;;;;;;6295700;28;20533;-81
2021/03/19 00:42:51;;;;;;;5.40;2.97;;;8.10;48.40;;;;;;6272227;28;20044;-82
2021/03/19 00:45:52;;;;;;;4.85;2.20;;;8.20;47.90;;;;;;6255768;28;20045;-81
2021/03/19 00:48:53;;;;;;;3.63;2.10;;;8.20;47.90;;;;;;6256876;28;20147;-82
2021/03/19 00:51:54;;;;;;;9.60;2.30;;;8.10;48.00;;;;;;6292437;28;20036;-82
2021/03/19 00:54:55;;;;;;;4.68;2.38;;;8.20;48.00;;;;;;6281715;28;20044;-82
2021/03/19 00:57:56;;;;;;;6.30;2.95;;;8.10;48.00;;;;;;6263164;28;20036;-82
2021/03/19 01:00:57;;;;;;;6.00;2.72;;;8.20;48.10;;;;;;6273488;28;20178;-84
2021/03/19 01:03:58;;;;;;;5.25;2.58;;;8.10;48.30;;;;;;6294870;28;20056;-83
2021/03/19 01:06:59;;;;;;;11.05;3.72;;;8.10;48.60;;;;;;6272217;28;20129;-83
2021/03/19 01:10:53;;;;;;;6.78;3.40;;;8.10;49.00;;;;;;6272240;28;20410;-83
2021/03/19 01:13:55;;;;;;;7.38;3.38;;;8.00;49.30;;;;;;6290357;28;20036;-82
2021/03/19 01:16:56;;;;;;;4.32;2.83;;;8.00;49.60;;;;;;6273735;28;20028;-82
2021/03/19 01:19:57;;;;;;;9.00;3.13;;;7.90;49.90;;;;;;6272168;28;20148;-83
2021/03/19 01:22:59;;;;;;;3.97;2.75;;;7.90;50.00;;;;;;6271593;28;20029;-82
2021/03/19 01:26:00;;;;;;;9.23;3.05;;;7.80;50.20;;;;;;6269538;28;20025;-83
2021/03/19 01:29:03;;;;;;;6.40;3.63;;;7.80;50.30;;;;;;6272215;28;20025;-83
2021/03/19 01:32:04;;;;;;;7.75;2.95;;;7.80;50.40;;;;;;6271143;28;20113;-82
2021/03/19 01:35:06;;;;;;;6.35;3.17;;;7.80;50.40;;;;;;6271962;28;20021;-82
2021/03/19 01:38:09;;;;;;;9.43;3.05;;;7.80;50.50;;;;;;6272075;28;20067;-83
2021/03/19 01:41:10;;;;;;;11.63;2.58;;;7.80;50.60;;;;;;6279829;28;20020;-84
2021/03/19 01:44:22;;;;;;;11.63;3.80;;;7.80;50.60;;;;;;6275712;28;20029;-81
2021/03/19 01:48:00;;;;;;;8.80;3.58;;;7.70;51.40;;;;;;6271265;28;20158;-81
2021/03/19 01:51:39;;;;;;;8.95;3.42;;;7.70;51.00;;;;;;6270461;28;20052;-83
2021/03/19 01:55:18;;;;;;;5.20;3.08;;;7.60;51.20;;;;;;6271257;28;20033;-83
2021/03/19 01:58:56;;;;;;;6.50;2.58;;;7.50;51.50;;;;;;6270148;28;20112;-83
2021/03/19 02:02:35;;;;;;;7.30;3.47;;;7.40;51.80;;;;;;6269970;28;20032;-82
2021/03/19 02:06:13;;;;;;;11.40;3.35;;;7.40;51.80;;;;;;6270559;28;20064;-82
2021/03/19 02:09:52;;;;;;;10.30;4.25;;;7.30;51.90;;;;;;6260348;28;20185;-81
2021/03/19 02:13:30;;;;;;;10.25;3.30;;;7.30;52.00;;;;;;6270039;28;20025;-81
2021/03/19 02:17:09;;;;;;;6.85;3.65;;;7.30;52.10;;;;;;6273309;28;20031;-82
2021/03/19 02:20:48;;;;;;;6.95;3.25;;;7.30;52.10;;;;;;6266003;28;20466;-81
2021/03/19 02:24:26;;;;;;;15.77;2.80;;;7.20;52.20;;;;;;6280164;28;20056;-82
2021/03/19 02:28:05;;;;;;;9.85;3.55;;;7.20;52.30;;;;;;6279776;28;20150;-82
2021/03/19 02:31:12;;;;;;;6.85;3.70;;;7.20;52.30;;;;;;6291727;28;20458;-82
2021/03/19 02:34:13;;;;;;;6.55;3.33;;;7.20;52.30;;;;;;6270045;28;20044;-83
2021/03/19 02:37:24;;;;;;;15.48;3.58;;;7.30;52.40;;;;;;6260792;28;20093;-82
2021/03/19 02:40:25;;;;;;;9.20;3.30;;;7.30;52.30;;;;;;6261355;28;20476;-82
2021/03/19 02:43:26;;;;;;;5.72;3.13;;;7.30;52.30;;;;;;6269754;28;20021;-82
2021/03/19 02:46:29;;;;;;;8.32;3.38;;;7.40;52.40;;;;;;6269249;28;20055;-83
2021/03/19 02:49:30;;;;;;;7.22;3.50;;;7.40;52.40;;;;;;6269292;28;20566;-83
2021/03/19 02:52:35;;;;;;;5.97;2.88;;;7.40;52.50;;;;;;6269036;28;20040;-82
2021/03/19 02:55:36;;;;;;;8.63;3.70;;;7.40;52.50;;;;;;6278177;28;20082;-82
2021/03/19 02:58:37;;;;;;;8.63;3.25;;;7.40;52.50;;;;;;6252301;28;20390;-83
2021/03/19 03:01:39;;;;;;;8.52;3.50;;;7.40;52.60;;;;;;6252602;28;20033;-83
2021/03/19 03:04:40;;;;;;;7.07;3.22;;;7.40;52.60;;;;;;6268579;28;20073;-82
2021/03/19 03:07:41;;;;;;;7.80;3.63;;;7.40;52.70;;;;;;6268604;28;20238;-82
2021/03/19 03:10:43;;;;;;;5.65;2.67;;;7.40;52.80;;;;;;6251590;28;20017;-82
2021/03/19 03:13:44;;;;;;;9.27;3.15;;;7.40;52.90;;;;;;6268577;28;20071;-81
2021/03/19 03:16:46;;;;;;;10.18;3.33;;;7.40;52.80;;;;;;6268477;28;20033;-81
2021/03/19 03:19:47;;;;;;;4.75;2.63;;;7.50;52.80;;;;;;6268862;28;20029;-82
2021/03/19 03:22:48;;;;;;;5.05;2.95;;;7.50;52.70;;;;;;6269098;28;20025;-82
2021/03/19 03:25:49;;;;;;;10.32;2.85;;;7.50;52.70;;;;;;6251171;28;20112;-82
2021/03/19 03:28:50;;;;;;;9.05;3.40;;;7.50;52.70;;;;;;6269725;28;20041;-81
2021/03/19 03:31:52;;;;;;;4.47;3.05;;;7.50;52.80;;;;;;6252883;28;20029;-81
2021/03/19 03:34:53;;;;;;;7.25;3.65;;;7.50;52.80;;;;;;6269060;28;20041;-82
2021/03/19 03:37:55;;;;;;;5.22;2.92;;;7.50;52.70;;;;;;6276347;28;20035;-82
2021/03/19 03:41:02;;;;;;;9.18;3.45;;;7.60;52.70;;;;;;6288340;28;20032;-83
2021/03/19 03:44:05;;;;;;;6.85;3.13;;;7.60;52.70;;;;;;6268165;28;20138;-82
2021/03/19 03:47:06;;;;;;;7.90;3.55;;;7.60;52.60;;;;;;6268362;28;20083;-82
2021/03/19 03:50:12;;;;;;;7.55;3.47;;;7.60;52.60;;;;;;6269421;28;20060;-82
2021/03/19 03:53:40;;;;;;;9.27;2.85;;;7.70;52.50;;;;;;6291258;28;20036;-82
2021/03/19 03:57:06;;;;;;;9.13;2.95;;;7.70;53.00;;;;;;6286166;28;20615;-82
2021/03/19 04:00:32;;;;;;;8.43;2.97;;;7.70;52.30;;;;;;6284821;28;20033;-82
2021/03/19 04:03:58;;;;;;;6.10;2.83;;;7.70;52.30;;;;;;6264990;28;20117;-82
2021/03/19 04:07:24;;;;;;;5.03;3.38;;;7.70;52.20;;;;;;6249130;28;20045;-82
2021/03/19 04:10:52;;;;;;;10.30;3.35;;;7.70;52.30;;;;;;6265616;28;20403;-82
2021/03/19 04:14:18;;;;;;;6.35;3.63;;;7.70;52.50;;;;;;6266285;28;20037;-81
2021/03/19 04:17:46;;;;;;;8.73;3.75;;;7.60;52.40;;;;;;6267068;28;20042;-84
2021/03/19 04:21:13;;;;;;;5.68;3.35;;;7.60;52.40;;;;;;6257994;28;20123;-82
2021/03/19 04:24:39;;;;;;;8.38;3.38;;;7.50;52.60;;;;;;6253884;28;20064;-82
2021/03/19 04:28:15;;;;;;;7.30;3.47;;;7.50;52.70;;;;;;6249525;28;20431;-83
2021/03/19 04:31:41;;;;;;;8.07;3.92;;;7.40;52.70;;;;;;6239088;28;20026;-82
2021/03/19 04:35:08;;;;;;;10.60;4.57;;;7.40;52.90;;;;;;6234173;28;20046;-82
2021/03/19 04:38:35;;;;;;;9.65;4.03;;;7.40;53.00;;;;;;6238627;28;20136;-82
2021/03/19 04:42:03;;;;;;;8.75;3.65;;;7.40;53.10;;;;;;6238558;28;20029;-81
2021/03/19 04:45:30;;;;;;;9.82;3.85;;;7.40;53.20;;;;;;6254901;28;20888;-82
2021/03/19 04:48:56;;;;;;;7.00;3.60;;;7.40;53.40;;;;;;6250936;28;20049;-82
2021/03/19 04:56:44;;;;;;;6.78;3.65;;;7.30;53.60;;;;;;6259832;28;20646;-82
2021/03/19 05:00:13;;;;;;;6.47;2.83;;;7.30;53.80;;;;;;6241697;28;20045;-82
2021/03/19 05:03:39;;;;;;;8.10;2.75;;;7.30;53.80;;;;;;6241891;28;20053;-83
2021/03/19 05:07:09;;;;;;;8.57;3.53;;;7.40;53.80;;;;;;6255471;28;20052;-83
2021/03/19 05:10:36;;;;;;;5.53;3.35;;;7.30;53.70;;;;;;6263460;28;20068;-83
2021/03/19 05:14:03;;;;;;;4.65;3.13;;;7.30;53.70;;;;;;6255232;28;20037;-82
2021/03/19 05:17:30;;;;;;;6.22;3.25;;;7.30;53.70;;;;;;6264077;28;20040;-84
2021/03/19 05:20:56;;;;;;;10.27;3.50;;;7.30;53.60;;;;;;6267382;28;20041;-84
2021/03/19 05:24:22;;;;;;;10.25;3.72;;;7.30;53.50;;;;;;6267712;28;20048;-84
2021/03/19 05:27:50;;;;;;;7.85;3.00;;;7.30;53.50;;;;;;6260772;28;20570;-82
2021/03/19 05:31:16;;;;;;;6.57;3.10;;;7.30;53.50;;;;;;6254133;28;20053;-82
2021/03/19 05:34:42;;;;;;;7.18;3.22;;;7.20;53.50;;;;;;6242007;28;20124;-82
2021/03/19 05:38:08;;;;;;;8.02;3.45;;;7.20;53.50;;;;;;6248250;28;20617;-82
2021/03/19 05:41:37;;;;;;;8.15;3.15;;;7.20;53.60;;;;;;6263278;28;20502;-82
2021/03/19 05:45:27;;;;;;;9.38;3.15;;;7.10;53.60;;;;;;6239620;28;20049;-82
2021/03/19 05:49:10;;;;;;;11.82;3.75;;;7.10;53.60;;;;;;6262438;28;20719;-82
2021/03/19 05:52:36;;;;;;;8.00;3.63;;;7.00;53.50;;;;;;6249347;28;20045;-82
2021/03/19 05:56:10;;;;;;;6.78;3.85;;;7.00;53.60;;;;;;6265756;28;20650;-83
2021/03/19 05:59:47;;;;;;;6.22;3.50;;;7.00;53.60;;;;;;6254136;28;20471;-82
2021/03/19 06:03:13;;;;;;;9.85;3.60;;;7.00;53.70;;;;;;6252156;28;20639;-82
2021/03/19 06:07:02;;;;;;;7.95;4.30;;;7.00;53.60;;;;;;6246264;28;20042;-85
2021/03/19 06:10:40;;;;;;;8.50;3.60;;;7.10;53.50;;;;;;6254062;28;20053;-83
2021/03/19 06:14:17;;;;;;;8.65;4.30;;;7.10;53.40;;;;;;6263200;28;20100;-82
2021/03/19 06:17:45;;;;;;;7.43;3.67;;;7.20;53.30;;;;;;6248829;28;20046;-84
2021/03/19 06:21:12;;;;;;;7.78;2.90;;;7.30;53.10;;;;;;6250503;28;20076;-81
2021/03/19 06:24:38;;;;;;;6.63;3.70;;;7.30;53.00;;;;;;6282691;28;20815;-81
2021/03/19 06:28:25;;;;;;;7.90;3.67;;;7.30;52.80;;;;;;6268454;28;20030;-83
2021/03/19 06:32:14;;;;;;;11.05;3.83;;;7.40;52.90;;;;;;6261237;28;20025;-82
2021/03/19 06:36:05;;;;;;;5.60;3.13;;;7.30;52.90;;;;;;6250906;28;20037;-81
2021/03/19 06:39:32;;;;;;;;;;;7.30;52.90;;;;;;6259144;28;20091;-80
2021/03/19 06:43:26;;;;;;;11.18;3.95;;;7.30;52.90;;;;;;6242500;28;19928;-83
2021/03/19 06:47:01;;;;;;;7.78;3.65;;;7.20;52.80;;;;;;6243360;28;20037;-80
2021/03/19 06:50:38;;;;;;;5.95;3.13;;;7.20;52.90;;;;;;6238722;28;20037;-83
2021/03/19 06:54:12;;;;;;;5.68;3.60;;;7.20;53.10;;;;;;6252935;28;20026;-81
2021/03/19 06:57:47;;;;;;;8.15;3.58;;;7.10;53.20;;;;;;6241261;28;20041;-82
2021/03/19 07:01:23;;;;;;;11.90;4.70;;;7.10;53.30;;;;;;6239542;28;20049;-79
2021/03/19 07:04:53;;;;;;;6.90;3.45;;;7.10;53.40;;;;;;6240325;28;20053;-81
2021/03/19 07:08:32;;;;;;;4.85;3.25;;;7.10;53.50;;;;;;6240623;28;20041;-82
2021/03/19 07:12:27;;;;;;;6.77;3.00;;;7.10;53.40;;;;;;6247702;28;20910;-83
2021/03/19 07:16:11;;;;;;;7.47;3.67;;;7.20;53.40;;;;;;6256316;28;20041;-84
2021/03/19 07:20:17;;;;;;;7.15;3.85;;;7.20;53.30;;;;;;6248891;28;20041;-84
2021/03/19 07:24:10;;;;;;;10.77;4.47;;;7.20;53.30;;;;;;6251950;28;20089;-83
2021/03/19 07:27:55;;;;;;;7.68;3.60;;;7.40;53.20;;;;;;6245601;28;20025;-83
2021/03/19 07:31:55;;;;;;;10.30;4.13;;;7.50;53.10;;;;;;6254819;28;20875;-85
2021/03/19 07:35:34;;;;;;;12.95;3.75;;;7.50;53.00;;;;;;6246917;28;20057;-83
2021/03/19 07:39:32;;;;;;;6.95;3.95;;;7.70;52.80;;;;;;6253734;28;20076;-85
2021/03/19 07:43:11;;;;;;;7.10;4.05;;;7.80;52.50;;;;;;6241634;28;20049;-83
2021/03/19 07:46:54;;;;;;;;;;;7.90;52.40;;;;;;6249153;28;20105;-83
2021/03/19 07:50:51;;;;;;;7.75;4.18;;;8.00;52.20;;;;;;6236096;28;19920;-83
2021/03/19 07:54:26;;;;;;;11.57;3.90;;;8.10;52.00;;;;;;6256321;28;20041;-84
2021/03/19 07:58:19;;;;;;;8.65;4.35;;;8.20;51.80;;;;;;6259773;28;20041;-85
2021/03/19 08:02:00;;;;;;;7.75;4.15;;;8.30;51.60;;;;;;6255334;28;20076;-84
2021/03/19 08:05:46;;;;;;;8.60;3.35;;;8.40;51.30;;;;;;6252207;28;20045;-85
2021/03/19 08:09:42;;;;;;;6.43;3.65;;;8.60;51.00;;;;;;6268939;28;20121;-84
2021/03/19 08:13:25;;;;;;;8.95;4.30;;;8.70;50.50;;;;;;6243335;28;20042;-83
2021/03/19 08:17:04;;;;;;;9.18;4.25;;;8.80;50.30;;;;;;6245517;28;20694;-84
2021/03/19 08:20:48;;;;;;;10.73;4.47;;;8.80;50.10;;;;;;6240248;28;21288;-84
2021/03/19 08:24:22;;;;;;;10.10;3.97;;;9.00;50.00;;;;;;6252201;28;20053;-82
2021/03/19 08:28:02;;;;;;;8.73;4.07;;;9.10;49.80;;;;;;6244613;28;20104;-84
2021/03/19 08:31:35;;;;;;;;;;;9.40;49.60;;;;;;6263496;28;20049;-84
2021/03/19 08:35:29;;;;;;;9.02;4.82;;;9.50;49.10;;;;;;6245978;28;19913;-84
2021/03/19 08:39:05;;;;;;;7.82;4.05;;;9.60;48.70;;;;;;6239358;28;20033;-83
2021/03/19 08:42:40;;;;;;;9.40;4.03;;;9.70;48.50;;;;;;6240223;28;20041;-83
2021/03/19 08:46:26;;;;;;;11.13;5.55;;;9.80;48.30;;;;;;6241399;28;20045;-85
2021/03/19 08:49:56;;;;;;;11.20;4.63;;;9.90;48.70;;;;;;6254893;28;20041;-84
2021/03/19 08:53:27;;;;;;;9.80;5.25;;;10.00;47.70;;;;;;6243799;28;20096;-82
2021/03/19 08:56:56;;;;;;;9.77;4.97;;;10.00;47.30;;;;;;6241757;28;20045;-84
2021/03/19 09:00:25;;;;;;;11.93;5.00;;;10.10;46.90;;;;;;6262414;28;20049;-85
2021/03/19 09:03:52;;;;;;;9.30;4.97;;;10.20;46.80;;;;;;6264401;28;20099;-85
2021/03/19 09:07:26;;;;;;;12.07;5.03;;;10.30;46.50;;;;;;6268531;28;20298;-85
2021/03/19 09:10:52;;;;;;;11.35;4.00;;;10.50;46.30;;;;;;6250158;28;20093;-85
2021/03/19 09:14:33;;;;;;;8.30;4.22;;;10.60;45.70;;;;;;6259504;28;20045;-84
2021/03/19 09:18:45;;;;;;;11.35;4.53;;;10.70;44.90;;;;;;6257111;28;20033;-84
2021/03/19 09:22:24;;;;;;;7.57;3.30;;;10.80;44.50;;;;;;6256522;28;20045;-84
2021/03/19 09:26:19;;;;;;;19.00;6.53;;;10.80;44.10;;;;;;6248508;28;20049;-83
2021/03/19 09:29:45;;;;;;;8.43;4.63;;;10.80;44.00;;;;;;6249610;28;20037;-82
2021/03/19 09:33:43;;;;;;;8.35;4.18;;;10.90;43.70;;;;;;6255762;28;20398;-83
2021/03/19 09:37:38;;;;;;;9.70;4.88;;;11.00;43.60;;;;;;6257383;28;20045;-84
2021/03/19 09:41:08;;;;;;;10.13;4.28;;;11.10;43.40;;;;;;6252605;28;20037;-84
2021/03/19 09:54:27;;;;;;;9.77;4.70;;;11.10;42.50;;;;;;6240738;28;20053;-85
2021/03/19 09:57:53;;;;;;;9.32;4.85;;;11.20;42.60;;;;;;6247941;28;20681;-83
2021/03/19 10:01:37;;;;;;;9.40;5.38;;;11.40;42.20;;;;;;6249207;28;20431;-84
2021/03/19 10:05:21;;;;;;;8.52;4.03;;;11.40;41.90;;;;;;6247379;28;20049;-82
2021/03/19 10:08:47;;;;;;;7.68;4.00;;;11.50;41.70;;;;;;6248902;28;20026;-84
2021/03/19 10:12:28;;;;;;;7.65;4.07;;;11.60;41.70;;;;;;6248424;28;20041;-83
2021/03/19 10:15:56;;;;;;;7.07;4.22;;;11.80;41.70;;;;;;6249150;28;20049;-83
2021/03/19 10:19:22;;;;;;;8.40;4.25;;;12.10;41.20;;;;;;6266519;28;20032;-84
2021/03/19 10:22:54;;;;;;;7.50;4.13;;;12.40;40.60;;;;;;6269225;28;20120;-84
2021/03/19 10:26:36;;;;;;;8.60;4.35;;;12.60;40.30;;;;;;6252601;28;20029;-84
2021/03/19 10:30:03;;;;;;;9.23;4.60;;;12.70;40.10;;;;;;6255322;28;20033;-84
2021/03/19 10:33:48;;;;;;;7.55;4.25;;;12.80;39.60;;;;;;6249088;28;20109;-84
2021/03/19 10:37:33;;;;;;;8.25;4.22;;;13.00;39.30;;;;;;6266380;28;20403;-86
2021/03/19 10:41:18;;;;;;;6.25;3.92;;;13.00;39.00;;;;;;6253994;28;20037;-84
2021/03/19 10:45:18;;;;;;;9.40;3.65;;;13.50;38.40;;;;;;6251800;28;20384;-84
2021/03/19 10:48:52;;;;;;;17.90;7.45;;;13.90;37.70;;;;;;6264230;28;20471;-84
2021/03/19 10:52:53;;;;;;;19.98;7.55;;;14.40;36.40;;;;;;6235224;28;20033;-83
2021/03/19 10:56:19;;;;;;;8.77;4.63;;;14.90;35.40;;;;;;6237700;28;20034;-83
2021/03/19 10:59:45;;;;;;;16.60;4.47;;;15.10;34.90;;;;;;6256763;28;20037;-85
2021/03/19 11:03:45;;;;;;;7.50;3.85;;;15.10;35.10;;;;;;6248327;28;20061;-85
2021/03/19 11:07:41;;;;;;;8.68;4.85;;;15.10;35.00;;;;;;6274392;28;20095;-84
2021/03/19 11:11:08;;;;;;;6.18;3.55;;;15.10;35.00;;;;;;6257328;28;20627;-84
2021/03/19 11:14:34;;;;;;;8.75;4.18;;;15.20;33.90;;;;;;6254732;28;20548;-84
2021/03/19 11:18:15;;;;;;;15.27;4.10;;;15.50;33.90;;;;;;6246744;28;20639;-83
2021/03/19 11:21:44;;;;;;;6.00;3.60;;;15.80;33.50;;;;;;6248574;28;20041;-85
2021/03/19 11:25:45;;;;;;;7.50;3.58;;;15.80;33.00;;;;;;6248861;28;20042;-86
2021/03/19 11:29:17;;;;;;;;;;;15.50;33.10;;;;;;6237249;28;20087;-84
2021/03/19 11:32:43;;;;;;;8.95;3.75;;;15.40;33.00;;;;;;6257032;28;19913;-83
2021/03/19 11:36:13;;;;;;;7.25;3.67;;;15.30;32.90;;;;;;6260205;28;20045;-86
2021/03/19 11:40:04;;;;;;;5.68;3.80;;;15.10;33.10;;;;;;6253825;28;20021;-84
2021/03/19 11:43:34;;;;;;;9.77;4.00;;;15.00;33.20;;;;;;6248844;28;20216;-85
2021/03/19 11:47:12;;;;;;;8.20;3.83;;;15.30;32.70;;;;;;6250775;28;20042;-84
2021/03/19 11:50:41;;;;;;;8.32;3.33;;;15.70;32.00;;;;;;6262534;28;20041;-85
2021/03/19 11:54:09;;;;;;;4.68;3.03;;;15.80;31.10;;;;;;6256979;28;20112;-83
2021/03/19 11:57:35;;;;;;;7.28;3.47;;;15.70;31.10;;;;;;6241042;28;20037;-86
2021/03/19 12:01:52;;;;;;;3.75;2.80;;;15.60;31.60;;;;;;6259122;28;20061;-86
2021/03/19 12:06:08;;;;;;;7.30;3.15;;;15.80;31.80;;;;;;6255401;28;20057;-86
2021/03/19 12:10:29;;;;;;;7.68;4.55;;;16.40;30.70;;;;;;6246607;28;20034;-85
2021/03/19 12:14:45;;;;;;;5.70;3.28;;;17.30;30.00;;;;;;6241453;28;20618;-86
2021/03/19 12:19:04;;;;;;;6.63;3.45;;;18.20;29.00;;;;;;6232430;28;20038;-85
2021/03/19 12:23:21;;;;;;;6.97;3.85;;;18.90;28.10;;;;;;6234325;28;20156;-85
2021/03/19 12:27:38;;;;;;;6.47;3.75;;;18.90;27.70;;;;;;6248670;28;20472;-84
2021/03/19 12:31:55;;;;;;;5.95;3.25;;;18.30;27.70;;;;;;6267805;28;20045;-84
2021/03/19 12:36:11;;;;;;;9.90;3.92;;;18.50;27.30;;;;;;6261639;28;20041;-85
2021/03/19 12:40:32;;;;;;;5.95;3.42;;;18.50;27.40;;;;;;6253338;28;20136;-84
2021/03/19 12:44:49;;;;;;;6.03;3.55;;;18.90;26.70;;;;;;6260987;28;20057;-83
2021/03/19 12:49:05;;;;;;;6.03;3.60;;;19.80;25.90;;;;;;6261873;28;20657;-84
2021/03/19 12:53:22;;;;;;;8.23;4.00;;;20.50;25.50;;;;;;6267903;28;20045;-85
2021/03/19 12:57:39;;;;;;;4.85;3.22;;;21.00;25.30;;;;;;6239114;28;20053;-84
2021/03/19 13:01:57;;;;;;;5.22;3.17;;;21.40;24.20;;;;;;6241820;28;20046;-84
